Česky Dansk Deutsch English Español Suomi Français Magyar Italiano Nederlands norsk Polski Português svenska Türkçe

 

Het Weer

Hof (Duitsland)

09:20, 19 augustus 2016 (GMT)

NWNNE
WE
SWSSE
Home            
Hof Bayreuth Grafenwoehr Karlovy Vary Altenburg Nobitz Kuemmersruck Erfurt-Bindersleben Nuernberg Hohenfels Leipzig-Schkeuditz Roth Kitzingen Usa \ Af Ansbach / Katterbach Illesheim Giebelstadt Dresden-Klotzsche Praha / Ruzyne Niederstetten Ingolstadt Neuburg / Donau Holzdorf Magdeburg, Sachsen-Anhalt Mebstetten / Albstadt

Om een weerknop op uw website of weblog te plaatsen, copieer onderstaande code en plak die in uw pagina. In het eerste vakje staat HTML-code, in het tweede vakje UBB-code.


Add to Google

Details

Wind speed:2 bf, 6 kn, 3.1 m/s, 6.9 miles/h, 11.1 km/h
Wind direction:SE, 140° - WSW, 240°
Visibility:Greater than 10000 m, 10 km, 32800 ft, 6.2 miles
Clouds:CAVOC
Temperature:22°C, 72°F
Gefühlte Temperatur:25°C, 77°F
Dew-point:8°C, 46°F
Atmospheric pressure:1013 hPa, 759.8 mmHg, 29.91 inHg, 1.000 atm
Relative humidity:40.6 %
METAR:EDQM 190920Z 18006KT 140V240 CAVOK 22/08 Q1013

Snelkoppelingen

Actuele weersinformatie van de hele wereld. Voeg locaties toe met het plus (+) symbool. Deze snelkoppelingen kunnen worden toegevoegd aan Google.

Lid van de Technetium groep

website free tracking
StatCounter NetStat W3C Validator

24-10-2020 07:52:27
astro.technetium.be money.technetium.be phote.technetium.be tafeltennistafel.technetium.be www.ligfiets.net